sensor_id;sensor_type;location;lat;lon;timestamp;temperature;humidity
65038;DHT22;51605;47.040;15.294;2022-07-12T00:01:06;24.00;40.50
65038;DHT22;51605;47.040;15.294;2022-07-12T00:03:32;24.10;40.20
65038;DHT22;51605;47.040;15.294;2022-07-12T00:05:58;24.10;40.00
65038;DHT22;51605;47.040;15.294;2022-07-12T00:08:24;24.10;39.80
65038;DHT22;51605;47.040;15.294;2022-07-12T00:10:50;24.20;39.70
65038;DHT22;51605;47.040;15.294;2022-07-12T00:13:16;24.10;39.60
65038;DHT22;51605;47.040;15.294;2022-07-12T00:15:42;24.20;39.50
65038;DHT22;51605;47.040;15.294;2022-07-12T00:18:08;24.20;40.40
65038;DHT22;51605;47.040;15.294;2022-07-12T00:20:34;24.20;39.20
65038;DHT22;51605;47.040;15.294;2022-07-12T00:22:59;24.20;39.20
65038;DHT22;51605;47.040;15.294;2022-07-12T00:25:25;24.20;39.10
65038;DHT22;51605;47.040;15.294;2022-07-12T00:27:51;24.20;39.00
65038;DHT22;51605;47.040;15.294;2022-07-12T00:30:17;24.20;38.90
65038;DHT22;51605;47.040;15.294;2022-07-12T00:32:44;24.20;39.50
65038;DHT22;51605;47.040;15.294;2022-07-12T00:35:10;24.20;40.20
65038;DHT22;51605;47.040;15.294;2022-07-12T00:37:36;24.10;39.90
65038;DHT22;51605;47.040;15.294;2022-07-12T00:40:07;24.10;40.00
65038;DHT22;51605;47.040;15.294;2022-07-12T00:42:34;24.10;41.00
65038;DHT22;51605;47.040;15.294;2022-07-12T00:45:00;24.10;40.70
65038;DHT22;51605;47.040;15.294;2022-07-12T00:49:59;24.10;41.50
65038;DHT22;51605;47.040;15.294;2022-07-12T00:52:25;24.00;41.20
65038;DHT22;51605;47.040;15.294;2022-07-12T00:54:51;24.00;41.00
65038;DHT22;51605;47.040;15.294;2022-07-12T00:57:16;24.00;41.50
65038;DHT22;51605;47.040;15.294;2022-07-12T00:59:43;24.00;41.60
65038;DHT22;51605;47.040;15.294;2022-07-12T01:02:09;24.00;42.50
65038;DHT22;51605;47.040;15.294;2022-07-12T01:04:35;24.00;40.90
65038;DHT22;51605;47.040;15.294;2022-07-12T01:07:01;24.10;40.60
65038;DHT22;51605;47.040;15.294;2022-07-12T01:09:28;24.10;40.50
65038;DHT22;51605;47.040;15.294;2022-07-12T01:11:54;24.10;40.10
65038;DHT22;51605;47.040;15.294;2022-07-12T01:14:20;24.10;40.00
65038;DHT22;51605;47.040;15.294;2022-07-12T01:16:46;24.10;39.80
65038;DHT22;51605;47.040;15.294;2022-07-12T01:19:13;24.20;39.60
65038;DHT22;51605;47.040;15.294;2022-07-12T01:21:47;24.20;39.50
65038;DHT22;51605;47.040;15.294;2022-07-12T01:24:14;24.20;40.30
65038;DHT22;51605;47.040;15.294;2022-07-12T01:26:40;24.10;40.20
65038;DHT22;51605;47.040;15.294;2022-07-12T01:29:07;24.10;40.40
65038;DHT22;51605;47.040;15.294;2022-07-12T01:31:36;24.10;41.10
65038;DHT22;51605;47.040;15.294;2022-07-12T01:34:06;24.10;40.90
65038;DHT22;51605;47.040;15.294;2022-07-12T01:36:32;24.10;41.00
65038;DHT22;51605;47.040;15.294;2022-07-12T01:38:58;24.10;41.10
65038;DHT22;51605;47.040;15.294;2022-07-12T01:41:24;24.00;41.60
65038;DHT22;51605;47.040;15.294;2022-07-12T01:43:51;24.00;41.50
65038;DHT22;51605;47.040;15.294;2022-07-12T01:46:17;24.00;41.00
65038;DHT22;51605;47.040;15.294;2022-07-12T01:48:43;24.00;40.60
65038;DHT22;51605;47.040;15.294;2022-07-12T01:51:08;24.10;40.40
65038;DHT22;51605;47.040;15.294;2022-07-12T01:53:36;24.10;40.10
65038;DHT22;51605;47.040;15.294;2022-07-12T01:56:03;24.10;39.90
65038;DHT22;51605;47.040;15.294;2022-07-12T01:58:30;24.10;39.70
65038;DHT22;51605;47.040;15.294;2022-07-12T02:00:56;24.10;39.60
65038;DHT22;51605;47.040;15.294;2022-07-12T02:03:22;24.20;40.00
65038;DHT22;51605;47.040;15.294;2022-07-12T02:05:48;24.10;40.60
65038;DHT22;51605;47.040;15.294;2022-07-12T02:08:14;24.10;40.50
65038;DHT22;51605;47.040;15.294;2022-07-12T02:10:40;24.10;40.30
65038;DHT22;51605;47.040;15.294;2022-07-12T02:13:06;24.10;41.20
65038;DHT22;51605;47.040;15.294;2022-07-12T02:15:32;24.00;41.00
65038;DHT22;51605;47.040;15.294;2022-07-12T02:17:58;24.00;40.90
65038;DHT22;51605;47.040;15.294;2022-07-12T02:20:24;24.10;40.60
65038;DHT22;51605;47.040;15.294;2022-07-12T02:22:50;24.10;40.30
65038;DHT22;51605;47.040;15.294;2022-07-12T02:25:16;24.10;40.10
65038;DHT22;51605;47.040;15.294;2022-07-12T02:27:41;24.10;39.80
65038;DHT22;51605;47.040;15.294;2022-07-12T02:30:08;24.20;39.70
65038;DHT22;51605;47.040;15.294;2022-07-12T02:32:35;24.20;39.60
65038;DHT22;51605;47.040;15.294;2022-07-12T02:35:01;24.20;39.40
65038;DHT22;51605;47.040;15.294;2022-07-12T02:37:26;24.20;40.10
65038;DHT22;51605;47.040;15.294;2022-07-12T02:39:52;24.10;40.40
65038;DHT22;51605;47.040;15.294;2022-07-12T02:42:38;24.10;40.60
65038;DHT22;51605;47.040;15.294;2022-07-12T02:45:05;24.10;40.80
65038;DHT22;51605;47.040;15.294;2022-07-12T02:47:30;24.10;41.10
65038;DHT22;51605;47.040;15.294;2022-07-12T02:49:58;24.10;41.10
65038;DHT22;51605;47.040;15.294;2022-07-12T02:52:23;24.10;40.70
65038;DHT22;51605;47.040;15.294;2022-07-12T02:54:50;24.10;40.30
65038;DHT22;51605;47.040;15.294;2022-07-12T02:57:15;24.10;41.10
65038;DHT22;51605;47.040;15.294;2022-07-12T02:59:41;24.10;39.90
65038;DHT22;51605;47.040;15.294;2022-07-12T03:02:06;24.20;39.70
65038;DHT22;51605;47.040;15.294;2022-07-12T03:04:32;24.20;39.60
65038;DHT22;51605;47.040;15.294;2022-07-12T03:06:58;24.20;39.50
65038;DHT22;51605;47.040;15.294;2022-07-12T03:09:23;24.20;39.80
65038;DHT22;51605;47.040;15.294;2022-07-12T03:11:49;24.20;40.50
65038;DHT22;51605;47.040;15.294;2022-07-12T03:14:15;24.10;40.20
65038;DHT22;51605;47.040;15.294;2022-07-12T03:16:40;24.10;40.30
65038;DHT22;51605;47.040;15.294;2022-07-12T03:19:06;24.10;41.10
65038;DHT22;51605;47.040;15.294;2022-07-12T03:21:32;24.10;40.90
65038;DHT22;51605;47.040;15.294;2022-07-12T03:23:57;24.10;40.70
65038;DHT22;51605;47.040;15.294;2022-07-12T03:26:23;24.10;41.40
65038;DHT22;51605;47.040;15.294;2022-07-12T03:28:49;24.00;41.30
65038;DHT22;51605;47.040;15.294;2022-07-12T03:31:15;24.00;41.20
65038;DHT22;51605;47.040;15.294;2022-07-12T03:33:40;24.00;40.70
65038;DHT22;51605;47.040;15.294;2022-07-12T03:36:06;24.10;40.50
65038;DHT22;51605;47.040;15.294;2022-07-12T03:38:34;24.10;40.20
65038;DHT22;51605;47.040;15.294;2022-07-12T03:41:00;24.10;39.90
65038;DHT22;51605;47.040;15.294;2022-07-12T03:43:26;24.20;39.90
65038;DHT22;51605;47.040;15.294;2022-07-12T03:45:52;24.10;39.60
65038;DHT22;51605;47.040;15.294;2022-07-12T03:48:17;24.20;39.50
65038;DHT22;51605;47.040;15.294;2022-07-12T03:50:43;24.20;39.30
65038;DHT22;51605;47.040;15.294;2022-07-12T03:53:11;24.20;40.20
65038;DHT22;51605;47.040;15.294;2022-07-12T03:55:36;24.10;40.20
65038;DHT22;51605;47.040;15.294;2022-07-12T03:58:02;24.10;40.30
65038;DHT22;51605;47.040;15.294;2022-07-12T04:00:28;24.10;40.80
65038;DHT22;51605;47.040;15.294;2022-07-12T04:02:54;24.10;40.90
65038;DHT22;51605;47.040;15.294;2022-07-12T04:05:20;24.10;40.90
65038;DHT22;51605;47.040;15.294;2022-07-12T04:07:46;24.10;41.20
65038;DHT22;51605;47.040;15.294;2022-07-12T04:10:11;24.10;41.80
65038;DHT22;51605;47.040;15.294;2022-07-12T04:12:37;24.10;41.90
65038;DHT22;51605;47.040;15.294;2022-07-12T04:15:06;24.10;41.50
65038;DHT22;51605;47.040;15.294;2022-07-12T04:17:32;24.10;42.10
65038;DHT22;51605;47.040;15.294;2022-07-12T04:19:58;24.10;42.10
65038;DHT22;51605;47.040;15.294;2022-07-12T04:22:23;24.10;41.50
65038;DHT22;51605;47.040;15.294;2022-07-12T04:24:49;24.10;41.40
65038;DHT22;51605;47.040;15.294;2022-07-12T04:27:15;24.10;42.10
65038;DHT22;51605;47.040;15.294;2022-07-12T04:29:40;24.10;42.20
65038;DHT22;51605;47.040;15.294;2022-07-12T04:32:06;24.10;41.50
65038;DHT22;51605;47.040;15.294;2022-07-12T04:34:32;24.20;41.00
65038;DHT22;51605;47.040;15.294;2022-07-12T04:36:58;24.20;40.90
65038;DHT22;51605;47.040;15.294;2022-07-12T04:39:23;24.20;40.50
65038;DHT22;51605;47.040;15.294;2022-07-12T04:41:49;24.20;40.30
65038;DHT22;51605;47.040;15.294;2022-07-12T04:44:15;24.20;40.10
65038;DHT22;51605;47.040;15.294;2022-07-12T04:46:40;24.20;40.10
65038;DHT22;51605;47.040;15.294;2022-07-12T04:49:06;24.30;39.90
65038;DHT22;51605;47.040;15.294;2022-07-12T04:51:32;24.30;39.80
65038;DHT22;51605;47.040;15.294;2022-07-12T04:53:58;24.30;39.70
65038;DHT22;51605;47.040;15.294;2022-07-12T04:56:23;24.30;40.70
65038;DHT22;51605;47.040;15.294;2022-07-12T04:58:49;24.20;40.80
65038;DHT22;51605;47.040;15.294;2022-07-12T05:01:16;24.30;40.70
65038;DHT22;51605;47.040;15.294;2022-07-12T05:03:41;24.30;40.30
65038;DHT22;51605;47.040;15.294;2022-07-12T05:06:07;24.20;41.20
65038;DHT22;51605;47.040;15.294;2022-07-12T05:08:33;24.20;41.30
65038;DHT22;51605;47.040;15.294;2022-07-12T05:10:59;24.30;41.10
65038;DHT22;51605;47.040;15.294;2022-07-12T05:13:25;24.30;40.70
65038;DHT22;51605;47.040;15.294;2022-07-12T05:15:51;24.30;40.40
65038;DHT22;51605;47.040;15.294;2022-07-12T05:18:16;24.30;40.20
65038;DHT22;51605;47.040;15.294;2022-07-12T05:20:42;24.30;40.00
65038;DHT22;51605;47.040;15.294;2022-07-12T05:23:08;24.30;39.80
65038;DHT22;51605;47.040;15.294;2022-07-12T05:25:34;24.30;39.70
65038;DHT22;51605;47.040;15.294;2022-07-12T05:27:59;24.30;39.60
65038;DHT22;51605;47.040;15.294;2022-07-12T05:30:25;24.40;39.50
65038;DHT22;51605;47.040;15.294;2022-07-12T05:32:52;24.40;40.30
65038;DHT22;51605;47.040;15.294;2022-07-12T05:35:18;24.30;40.70
65038;DHT22;51605;47.040;15.294;2022-07-12T05:37:43;24.30;40.60
65038;DHT22;51605;47.040;15.294;2022-07-12T05:40:09;24.30;40.20
65038;DHT22;51605;47.040;15.294;2022-07-12T05:42:35;24.30;39.90
65038;DHT22;51605;47.040;15.294;2022-07-12T05:45:02;24.40;41.00
65038;DHT22;51605;47.040;15.294;2022-07-12T05:47:28;24.30;41.40
65038;DHT22;51605;47.040;15.294;2022-07-12T05:49:54;24.30;41.10
65038;DHT22;51605;47.040;15.294;2022-07-12T05:52:19;24.30;40.60
65038;DHT22;51605;47.040;15.294;2022-07-12T05:55:04;24.30;40.20
65038;DHT22;51605;47.040;15.294;2022-07-12T05:57:29;24.40;40.00
65038;DHT22;51605;47.040;15.294;2022-07-12T05:59:55;24.30;39.80
65038;DHT22;51605;47.040;15.294;2022-07-12T06:02:21;24.30;39.70
65038;DHT22;51605;47.040;15.294;2022-07-12T06:04:48;24.40;39.50
65038;DHT22;51605;47.040;15.294;2022-07-12T06:07:13;24.40;39.40
65038;DHT22;51605;47.040;15.294;2022-07-12T06:09:39;24.40;39.20
65038;DHT22;51605;47.040;15.294;2022-07-12T06:12:05;24.40;39.40
65038;DHT22;51605;47.040;15.294;2022-07-12T06:14:31;24.30;40.30
65038;DHT22;51605;47.040;15.294;2022-07-12T06:16:56;24.30;40.50
65038;DHT22;51605;47.040;15.294;2022-07-12T06:19:22;24.30;40.20
65038;DHT22;51605;47.040;15.294;2022-07-12T06:21:49;24.30;40.70
65038;DHT22;51605;47.040;15.294;2022-07-12T06:24:15;24.20;40.90
65038;DHT22;51605;47.040;15.294;2022-07-12T06:26:40;24.30;40.80
65038;DHT22;51605;47.040;15.294;2022-07-12T06:29:06;24.30;40.50
65038;DHT22;51605;47.040;15.294;2022-07-12T06:31:32;24.30;40.20
65038;DHT22;51605;47.040;15.294;2022-07-12T06:33:59;24.30;40.00
65038;DHT22;51605;47.040;15.294;2022-07-12T06:36:25;24.40;39.80
65038;DHT22;51605;47.040;15.294;2022-07-12T06:38:50;24.40;39.70
65038;DHT22;51605;47.040;15.294;2022-07-12T06:41:16;24.30;40.60
65038;DHT22;51605;47.040;15.294;2022-07-12T06:43:42;24.30;41.00
65038;DHT22;51605;47.040;15.294;2022-07-12T06:46:08;24.30;40.80
65038;DHT22;51605;47.040;15.294;2022-07-12T06:48:33;24.30;40.30
65038;DHT22;51605;47.040;15.294;2022-07-12T06:50:59;24.30;40.00
65038;DHT22;51605;47.040;15.294;2022-07-12T06:53:25;24.40;40.00
65038;DHT22;51605;47.040;15.294;2022-07-12T06:55:50;24.40;39.80
65038;DHT22;51605;47.040;15.294;2022-07-12T06:58:16;24.40;39.60
65038;DHT22;51605;47.040;15.294;2022-07-12T07:00:42;24.40;41.30
65038;DHT22;51605;47.040;15.294;2022-07-12T07:03:07;24.30;40.70
65038;DHT22;51605;47.040;15.294;2022-07-12T07:05:34;24.30;40.60
65038;DHT22;51605;47.040;15.294;2022-07-12T07:08:02;24.40;40.80
65038;DHT22;51605;47.040;15.294;2022-07-12T07:10:28;24.30;41.50
65038;DHT22;51605;47.040;15.294;2022-07-12T07:12:54;24.30;41.40
65038;DHT22;51605;47.040;15.294;2022-07-12T07:15:19;24.30;40.80
65038;DHT22;51605;47.040;15.294;2022-07-12T07:17:46;24.30;41.30
65038;DHT22;51605;47.040;15.294;2022-07-12T07:20:12;24.30;41.70
65038;DHT22;51605;47.040;15.294;2022-07-12T07:22:38;24.30;41.40
65038;DHT22;51605;47.040;15.294;2022-07-12T07:25:05;24.30;40.80
65038;DHT22;51605;47.040;15.294;2022-07-12T07:27:30;24.30;40.60
65038;DHT22;51605;47.040;15.294;2022-07-12T07:29:56;24.30;40.40
65038;DHT22;51605;47.040;15.294;2022-07-12T07:32:40;24.30;40.70
65038;DHT22;51605;47.040;15.294;2022-07-12T07:35:06;24.30;41.60
65038;DHT22;51605;47.040;15.294;2022-07-12T07:37:35;24.30;41.50
65038;DHT22;51605;47.040;15.294;2022-07-12T07:40:01;24.30;40.90
65038;DHT22;51605;47.040;15.294;2022-07-12T07:42:27;24.40;40.60
65038;DHT22;51605;47.040;15.294;2022-07-12T07:44:53;24.40;40.40
65038;DHT22;51605;47.040;15.294;2022-07-12T07:47:18;24.40;40.60
65038;DHT22;51605;47.040;15.294;2022-07-12T07:49:44;24.40;41.40
65038;DHT22;51605;47.040;15.294;2022-07-12T07:52:10;24.30;41.60
65038;DHT22;51605;47.040;15.294;2022-07-12T07:54:35;24.30;41.00
65038;DHT22;51605;47.040;15.294;2022-07-12T07:57:01;24.40;41.60
65038;DHT22;51605;47.040;15.294;2022-07-12T07:59:27;24.40;40.40
65038;DHT22;51605;47.040;15.294;2022-07-12T08:01:52;24.40;40.20
65038;DHT22;51605;47.040;15.294;2022-07-12T08:04:19;24.40;41.20
65038;DHT22;51605;47.040;15.294;2022-07-12T08:06:45;24.30;41.30
65038;DHT22;51605;47.040;15.294;2022-07-12T08:09:12;24.30;40.90
65038;DHT22;51605;47.040;15.294;2022-07-12T08:11:38;24.40;40.60
65038;DHT22;51605;47.040;15.294;2022-07-12T08:14:05;24.40;40.40
65038;DHT22;51605;47.040;15.294;2022-07-12T08:16:31;24.40;40.30
65038;DHT22;51605;47.040;15.294;2022-07-12T08:18:57;24.40;40.40
65038;DHT22;51605;47.040;15.294;2022-07-12T08:21:23;24.40;41.20
65038;DHT22;51605;47.040;15.294;2022-07-12T08:23:50;24.30;41.20
65038;DHT22;51605;47.040;15.294;2022-07-12T08:26:16;24.40;40.80
65038;DHT22;51605;47.040;15.294;2022-07-12T08:28:41;24.40;40.40
65038;DHT22;51605;47.040;15.294;2022-07-12T08:31:08;24.40;40.30
65038;DHT22;51605;47.040;15.294;2022-07-12T08:33:33;24.40;40.00
65038;DHT22;51605;47.040;15.294;2022-07-12T08:35:59;24.40;39.80
65038;DHT22;51605;47.040;15.294;2022-07-12T08:38:25;24.40;39.60
65038;DHT22;51605;47.040;15.294;2022-07-12T08:40:50;24.40;39.50
65038;DHT22;51605;47.040;15.294;2022-07-12T08:43:16;24.40;39.40
65038;DHT22;51605;47.040;15.294;2022-07-12T08:45:42;24.40;39.30
65038;DHT22;51605;47.040;15.294;2022-07-12T08:48:08;24.40;39.10
65038;DHT22;51605;47.040;15.294;2022-07-12T08:50:34;24.40;39.00
65038;DHT22;51605;47.040;15.294;2022-07-12T08:53:00;24.40;39.00
65038;DHT22;51605;47.040;15.294;2022-07-12T08:57:57;24.40;40.20
65038;DHT22;51605;47.040;15.294;2022-07-12T09:00:24;24.30;40.30
65038;DHT22;51605;47.040;15.294;2022-07-12T09:05:18;24.20;41.10
65038;DHT22;51605;47.040;15.294;2022-07-12T09:07:45;24.20;41.00
65038;DHT22;51605;47.040;15.294;2022-07-12T09:10:11;24.20;40.50
65038;DHT22;51605;47.040;15.294;2022-07-12T09:12:38;24.30;40.20
65038;DHT22;51605;47.040;15.294;2022-07-12T09:15:18;24.30;39.90
65038;DHT22;51605;47.040;15.294;2022-07-12T09:20:22;24.30;40.30
65038;DHT22;51605;47.040;15.294;2022-07-12T09:23:03;24.20;40.60
65038;DHT22;51605;47.040;15.294;2022-07-12T09:25:30;24.20;40.70
65038;DHT22;51605;47.040;15.294;2022-07-12T09:28:01;24.20;40.30
65038;DHT22;51605;47.040;15.294;2022-07-12T09:30:28;24.20;41.30
65038;DHT22;51605;47.040;15.294;2022-07-12T09:33:02;24.10;41.10
65038;DHT22;51605;47.040;15.294;2022-07-12T09:38:52;24.10;41.60
65038;DHT22;51605;47.040;15.294;2022-07-12T09:41:20;24.10;41.40
65038;DHT22;51605;47.040;15.294;2022-07-12T09:43:47;24.20;40.90
65038;DHT22;51605;47.040;15.294;2022-07-12T09:46:14;24.20;40.60
65038;DHT22;51605;47.040;15.294;2022-07-12T09:48:40;24.20;40.30
65038;DHT22;51605;47.040;15.294;2022-07-12T09:51:08;24.30;40.10
65038;DHT22;51605;47.040;15.294;2022-07-12T09:53:43;24.20;39.90
65038;DHT22;51605;47.040;15.294;2022-07-12T09:56:15;24.30;39.70
65038;DHT22;51605;47.040;15.294;2022-07-12T09:58:57;24.30;40.20
65038;DHT22;51605;47.040;15.294;2022-07-12T10:01:23;24.20;41.10
65038;DHT22;51605;47.040;15.294;2022-07-12T10:03:51;24.30;41.00
65038;DHT22;51605;47.040;15.294;2022-07-12T10:06:28;24.30;40.40
65038;DHT22;51605;47.040;15.294;2022-07-12T10:08:55;24.30;40.10
65038;DHT22;51605;47.040;15.294;2022-07-12T10:11:22;24.30;39.90
65038;DHT22;51605;47.040;15.294;2022-07-12T10:13:48;24.30;39.70
65038;DHT22;51605;47.040;15.294;2022-07-12T10:16:15;24.40;39.60
65038;DHT22;51605;47.040;15.294;2022-07-12T10:18:42;24.40;39.40
65038;DHT22;51605;47.040;15.294;2022-07-12T10:21:20;24.40;40.30
65038;DHT22;51605;47.040;15.294;2022-07-12T10:23:48;24.30;40.70
65038;DHT22;51605;47.040;15.294;2022-07-12T10:31:37;24.30;41.20
65038;DHT22;51605;47.040;15.294;2022-07-12T10:39:26;24.30;40.00
65038;DHT22;51605;47.040;15.294;2022-07-12T10:44:38;24.30;39.60
65038;DHT22;51605;47.040;15.294;2022-07-12T10:47:06;24.40;39.40
65038;DHT22;51605;47.040;15.294;2022-07-12T10:49:33;24.40;39.30
65038;DHT22;51605;47.040;15.294;2022-07-12T10:52:23;24.40;39.20
65038;DHT22;51605;47.040;15.294;2022-07-12T10:57:42;24.30;40.30
65038;DHT22;51605;47.040;15.294;2022-07-12T11:00:13;24.30;40.20
65038;DHT22;51605;47.040;15.294;2022-07-12T11:02:39;24.30;40.90
65038;DHT22;51605;47.040;15.294;2022-07-12T11:05:06;24.30;41.30
65038;DHT22;51605;47.040;15.294;2022-07-12T11:07:32;24.30;40.90
65038;DHT22;51605;47.040;15.294;2022-07-12T11:09:58;24.30;41.40
65038;DHT22;51605;47.040;15.294;2022-07-12T11:12:28;24.30;41.70
65038;DHT22;51605;47.040;15.294;2022-07-12T11:14:59;24.30;41.40
65038;DHT22;51605;47.040;15.294;2022-07-12T11:17:31;24.30;41.60
65038;DHT22;51605;47.040;15.294;2022-07-12T11:22:36;24.30;41.50
65038;DHT22;51605;47.040;15.294;2022-07-12T11:25:02;24.30;41.10
65038;DHT22;51605;47.040;15.294;2022-07-12T11:27:28;24.30;40.70
65038;DHT22;51605;47.040;15.294;2022-07-12T11:30:00;24.30;40.30
65038;DHT22;51605;47.040;15.294;2022-07-12T11:32:40;24.40;40.10
65038;DHT22;51605;47.040;15.294;2022-07-12T11:35:26;24.40;39.90
65038;DHT22;51605;47.040;15.294;2022-07-12T11:37:55;24.40;39.70
65038;DHT22;51605;47.040;15.294;2022-07-12T11:40:28;24.40;40.10
65038;DHT22;51605;47.040;15.294;2022-07-12T11:42:59;24.40;40.70
65038;DHT22;51605;47.040;15.294;2022-07-12T11:45:29;24.40;41.40
65038;DHT22;51605;47.040;15.294;2022-07-12T11:47:57;24.40;41.20
65038;DHT22;51605;47.040;15.294;2022-07-12T11:50:23;24.40;40.70
65038;DHT22;51605;47.040;15.294;2022-07-12T11:52:49;24.40;40.30
65038;DHT22;51605;47.040;15.294;2022-07-12T11:55:14;24.40;40.10
65038;DHT22;51605;47.040;15.294;2022-07-12T11:57:41;24.40;40.40
65038;DHT22;51605;47.040;15.294;2022-07-12T12:00:17;24.40;41.30
65038;DHT22;51605;47.040;15.294;2022-07-12T12:02:44;24.40;41.30
65038;DHT22;51605;47.040;15.294;2022-07-12T12:05:10;24.40;40.70
65038;DHT22;51605;47.040;15.294;2022-07-12T12:07:36;24.40;40.30
65038;DHT22;51605;47.040;15.294;2022-07-12T12:12:34;24.40;41.30
65038;DHT22;51605;47.040;15.294;2022-07-12T12:15:08;24.30;41.20
65038;DHT22;51605;47.040;15.294;2022-07-12T12:17:35;24.30;40.60
65038;DHT22;51605;47.040;15.294;2022-07-12T12:20:18;24.30;40.30
65038;DHT22;51605;47.040;15.294;2022-07-12T12:22:45;24.40;40.10
65038;DHT22;51605;47.040;15.294;2022-07-12T12:25:13;24.40;40.00
65038;DHT22;51605;47.040;15.294;2022-07-12T12:27:50;24.40;39.80
65038;DHT22;51605;47.040;15.294;2022-07-12T12:30:19;24.40;39.60
65038;DHT22;51605;47.040;15.294;2022-07-12T12:32:55;24.40;39.40
65038;DHT22;51605;47.040;15.294;2022-07-12T12:35:44;24.40;40.00
65038;DHT22;51605;47.040;15.294;2022-07-12T12:38:15;24.30;40.80
65038;DHT22;51605;47.040;15.294;2022-07-12T12:40:50;24.30;40.80
65038;DHT22;51605;47.040;15.294;2022-07-12T12:43:20;24.30;40.20
65038;DHT22;51605;47.040;15.294;2022-07-12T12:48:19;24.30;39.70
65038;DHT22;51605;47.040;15.294;2022-07-12T12:50:47;24.30;39.60
65038;DHT22;51605;47.040;15.294;2022-07-12T12:53:18;24.30;40.00
65038;DHT22;51605;47.040;15.294;2022-07-12T12:55:48;24.30;40.60
65038;DHT22;51605;47.040;15.294;2022-07-12T12:58:15;24.30;40.90
65038;DHT22;51605;47.040;15.294;2022-07-12T13:00:42;24.30;40.80
65038;DHT22;51605;47.040;15.294;2022-07-12T13:03:10;24.30;40.20
65038;DHT22;51605;47.040;15.294;2022-07-12T13:05:36;24.40;40.60
65038;DHT22;51605;47.040;15.294;2022-07-12T13:08:03;24.30;41.10
65038;DHT22;51605;47.040;15.294;2022-07-12T13:10:29;24.30;41.10
65038;DHT22;51605;47.040;15.294;2022-07-12T13:12:55;24.30;40.60
65038;DHT22;51605;47.040;15.294;2022-07-12T13:15:21;24.30;40.30
65038;DHT22;51605;47.040;15.294;2022-07-12T13:17:47;24.30;40.10
65038;DHT22;51605;47.040;15.294;2022-07-12T13:20:13;24.30;41.20
65038;DHT22;51605;47.040;15.294;2022-07-12T13:22:40;24.30;42.20
65038;DHT22;51605;47.040;15.294;2022-07-12T13:25:09;24.20;40.80
65038;DHT22;51605;47.040;15.294;2022-07-12T13:27:38;24.30;40.50
65038;DHT22;51605;47.040;15.294;2022-07-12T13:30:05;24.30;40.10
65038;DHT22;51605;47.040;15.294;2022-07-12T13:32:33;24.30;39.80
65038;DHT22;51605;47.040;15.294;2022-07-12T13:34:59;24.30;39.70
65038;DHT22;51605;47.040;15.294;2022-07-12T13:37:26;24.40;39.60
65038;DHT22;51605;47.040;15.294;2022-07-12T13:39:51;24.40;39.50
65038;DHT22;51605;47.040;15.294;2022-07-12T13:42:39;24.40;39.30
65038;DHT22;51605;47.040;15.294;2022-07-12T13:45:07;24.40;40.40
65038;DHT22;51605;47.040;15.294;2022-07-12T13:47:34;24.30;40.60
65038;DHT22;51605;47.040;15.294;2022-07-12T13:50:00;24.30;40.30
65038;DHT22;51605;47.040;15.294;2022-07-12T13:52:25;24.30;41.00
65038;DHT22;51605;47.040;15.294;2022-07-12T13:54:51;24.20;41.10
65038;DHT22;51605;47.040;15.294;2022-07-12T13:57:16;24.20;41.90
65038;DHT22;51605;47.040;15.294;2022-07-12T13:59:42;24.20;41.40
65038;DHT22;51605;47.040;15.294;2022-07-12T14:02:09;24.20;41.70
65038;DHT22;51605;47.040;15.294;2022-07-12T14:04:34;24.20;41.40
65038;DHT22;51605;47.040;15.294;2022-07-12T14:07:01;24.30;41.00
65038;DHT22;51605;47.040;15.294;2022-07-12T14:09:26;24.30;40.60
65038;DHT22;51605;47.040;15.294;2022-07-12T14:11:52;24.30;40.40
65038;DHT22;51605;47.040;15.294;2022-07-12T14:14:19;24.30;40.10
65038;DHT22;51605;47.040;15.294;2022-07-12T14:17:05;24.30;39.80
65038;DHT22;51605;47.040;15.294;2022-07-12T14:19:31;24.40;39.70
65038;DHT22;51605;47.040;15.294;2022-07-12T14:21:57;24.40;39.60
65038;DHT22;51605;47.040;15.294;2022-07-12T14:24:23;24.40;40.40
65038;DHT22;51605;47.040;15.294;2022-07-12T14:26:48;24.30;40.70
65038;DHT22;51605;47.040;15.294;2022-07-12T14:29:14;24.30;40.60
65038;DHT22;51605;47.040;15.294;2022-07-12T14:31:39;24.30;41.00
65038;DHT22;51605;47.040;15.294;2022-07-12T14:34:05;24.20;41.20
65038;DHT22;51605;47.040;15.294;2022-07-12T14:36:31;24.20;41.00
65038;DHT22;51605;47.040;15.294;2022-07-12T14:38:57;24.30;40.60
65038;DHT22;51605;47.040;15.294;2022-07-12T14:41:22;24.30;40.30
65038;DHT22;51605;47.040;15.294;2022-07-12T14:43:48;24.30;40.00
65038;DHT22;51605;47.040;15.294;2022-07-12T14:46:15;24.40;39.80
65038;DHT22;51605;47.040;15.294;2022-07-12T14:48:42;24.30;39.60
65038;DHT22;51605;47.040;15.294;2022-07-12T14:51:08;24.40;39.50
65038;DHT22;51605;47.040;15.294;2022-07-12T14:53:34;24.40;39.50
65038;DHT22;51605;47.040;15.294;2022-07-12T14:56:00;24.40;40.10
65038;DHT22;51605;47.040;15.294;2022-07-12T14:58:26;24.30;40.40
65038;DHT22;51605;47.040;15.294;2022-07-12T15:00:52;24.30;40.40
65038;DHT22;51605;47.040;15.294;2022-07-12T15:03:17;24.30;40.10
65038;DHT22;51605;47.040;15.294;2022-07-12T15:05:43;24.30;39.80
65038;DHT22;51605;47.040;15.294;2022-07-12T15:08:09;24.30;40.50
65038;DHT22;51605;47.040;15.294;2022-07-12T15:10:36;24.30;40.80
65038;DHT22;51605;47.040;15.294;2022-07-12T15:13:02;24.30;40.70
65038;DHT22;51605;47.040;15.294;2022-07-12T15:15:28;24.30;40.30
65038;DHT22;51605;47.040;15.294;2022-07-12T15:17:53;24.30;40.00
65038;DHT22;51605;47.040;15.294;2022-07-12T15:20:19;24.30;39.80
65038;DHT22;51605;47.040;15.294;2022-07-12T15:22:45;24.40;39.60
65038;DHT22;51605;47.040;15.294;2022-07-12T15:25:11;24.40;39.40
65038;DHT22;51605;47.040;15.294;2022-07-12T15:27:36;24.30;40.00
65038;DHT22;51605;47.040;15.294;2022-07-12T15:30:03;24.30;41.50
65038;DHT22;51605;47.040;15.294;2022-07-12T15:32:29;24.30;40.50
65038;DHT22;51605;47.040;15.294;2022-07-12T15:34:54;24.30;40.60
65038;DHT22;51605;47.040;15.294;2022-07-12T15:37:22;24.30;41.10
65038;DHT22;51605;47.040;15.294;2022-07-12T15:39:47;24.20;41.10
65038;DHT22;51605;47.040;15.294;2022-07-12T15:42:13;24.20;40.60
65038;DHT22;51605;47.040;15.294;2022-07-12T15:44:39;24.30;40.30
65038;DHT22;51605;47.040;15.294;2022-07-12T15:47:05;24.30;40.00
65038;DHT22;51605;47.040;15.294;2022-07-12T15:49:31;24.30;39.80
65038;DHT22;51605;47.040;15.294;2022-07-12T15:51:57;24.30;39.60